Miami, Florida
Traffic Map
Current Weather Conditions
Miami, Florida
Overcast
Overcast
75°
Feels Like: 75°
Wind Chill: 75° Ceiling: 12000
Heat Index: 75° Visibility: 10mi
Dew Point: 73° Wind: 0mph
Humidity: 94% Direction: ° ()
Pressure: 29.93in Gusts: 0mph
Raw Report DataKMIA 230353Z 00000KT 10SM FEW015 OVC120 24/23 A2993 RMK AO2 SLP134 T02390228
Traffic Incident Summary
Active as of:
Severity:
Category:
InformationThere was an issue retrieving the traffic information for this location. Please try a different location or try again shortly.
Advertisements
Track Severe Weather on mobile